sensor_id;sensor_type;location;lat;lon;timestamp;temperature;humidity
16283;DHT22;8249;48.708;9.030;2022-09-20T00:00:44;6.30;99.90
16283;DHT22;8249;48.708;9.030;2022-09-20T00:03:12;6.30;99.90
16283;DHT22;8249;48.708;9.030;2022-09-20T00:05:41;6.30;99.90
16283;DHT22;8249;48.708;9.030;2022-09-20T00:08:12;6.30;99.90
16283;DHT22;8249;48.708;9.030;2022-09-20T00:10:39;6.30;99.90
16283;DHT22;8249;48.708;9.030;2022-09-20T00:13:09;6.30;99.90
16283;DHT22;8249;48.708;9.030;2022-09-20T00:15:40;6.30;99.90
16283;DHT22;8249;48.708;9.030;2022-09-20T00:18:08;6.30;99.90
16283;DHT22;8249;48.708;9.030;2022-09-20T00:20:36;6.30;99.90
16283;DHT22;8249;48.708;9.030;2022-09-20T00:23:03;6.20;99.90
16283;DHT22;8249;48.708;9.030;2022-09-20T00:25:30;6.20;99.90
16283;DHT22;8249;48.708;9.030;2022-09-20T00:27:57;6.20;99.90
16283;DHT22;8249;48.708;9.030;2022-09-20T00:30:24;6.20;99.90
16283;DHT22;8249;48.708;9.030;2022-09-20T00:32:51;6.10;99.90
16283;DHT22;8249;48.708;9.030;2022-09-20T00:35:20;6.10;99.90
16283;DHT22;8249;48.708;9.030;2022-09-20T00:37:45;6.10;99.90
16283;DHT22;8249;48.708;9.030;2022-09-20T00:40:18;6.10;99.90
16283;DHT22;8249;48.708;9.030;2022-09-20T00:42:46;6.00;99.90
16283;DHT22;8249;48.708;9.030;2022-09-20T00:45:19;6.00;99.90
16283;DHT22;8249;48.708;9.030;2022-09-20T00:47:49;6.00;99.90
16283;DHT22;8249;48.708;9.030;2022-09-20T00:50:25;6.00;99.90
16283;DHT22;8249;48.708;9.030;2022-09-20T00:52:57;5.90;99.90
16283;DHT22;8249;48.708;9.030;2022-09-20T00:55:25;5.90;99.90
16283;DHT22;8249;48.708;9.030;2022-09-20T00:57:53;5.90;99.90
16283;DHT22;8249;48.708;9.030;2022-09-20T01:00:20;5.90;99.90
16283;DHT22;8249;48.708;9.030;2022-09-20T01:02:50;5.80;99.90
16283;DHT22;8249;48.708;9.030;2022-09-20T01:05:20;5.80;99.90
16283;DHT22;8249;48.708;9.030;2022-09-20T01:07:49;5.80;99.90
16283;DHT22;8249;48.708;9.030;2022-09-20T01:10:16;5.80;99.90
16283;DHT22;8249;48.708;9.030;2022-09-20T01:12:44;5.80;99.90
16283;DHT22;8249;48.708;9.030;2022-09-20T01:15:13;5.80;99.90
16283;DHT22;8249;48.708;9.030;2022-09-20T01:17:44;5.80;99.90
16283;DHT22;8249;48.708;9.030;2022-09-20T01:20:15;5.90;99.90
16283;DHT22;8249;48.708;9.030;2022-09-20T01:22:55;5.80;99.90
16283;DHT22;8249;48.708;9.030;2022-09-20T01:28:28;5.70;99.90
16283;DHT22;8249;48.708;9.030;2022-09-20T01:31:02;5.70;99.90
16283;DHT22;8249;48.708;9.030;2022-09-20T01:33:38;5.70;99.90
16283;DHT22;8249;48.708;9.030;2022-09-20T01:36:08;5.70;99.90
16283;DHT22;8249;48.708;9.030;2022-09-20T01:38:43;5.70;99.90
16283;DHT22;8249;48.708;9.030;2022-09-20T01:41:15;5.80;99.90
16283;DHT22;8249;48.708;9.030;2022-09-20T01:43:50;5.80;99.90
16283;DHT22;8249;48.708;9.030;2022-09-20T01:46:27;5.80;99.90
16283;DHT22;8249;48.708;9.030;2022-09-20T01:49:03;5.80;99.90
16283;DHT22;8249;48.708;9.030;2022-09-20T01:51:59;5.80;99.90
16283;DHT22;8249;48.708;9.030;2022-09-20T01:54:54;5.70;99.90
16283;DHT22;8249;48.708;9.030;2022-09-20T02:00:31;5.70;99.90
16283;DHT22;8249;48.708;9.030;2022-09-20T02:03:28;5.70;99.90
16283;DHT22;8249;48.708;9.030;2022-09-20T02:06:11;5.60;99.90
16283;DHT22;8249;48.708;9.030;2022-09-20T02:09:07;5.60;99.90
16283;DHT22;8249;48.708;9.030;2022-09-20T02:11:49;5.50;99.90
16283;DHT22;8249;48.708;9.030;2022-09-20T02:14:38;5.50;99.90
16283;DHT22;8249;48.708;9.030;2022-09-20T02:17:13;5.50;99.90
16283;DHT22;8249;48.708;9.030;2022-09-20T02:20:00;5.50;99.90
16283;DHT22;8249;48.708;9.030;2022-09-20T02:22:42;5.40;99.90
16283;DHT22;8249;48.708;9.030;2022-09-20T02:28:30;5.40;99.90
16283;DHT22;8249;48.708;9.030;2022-09-20T02:31:13;5.40;99.90
16283;DHT22;8249;48.708;9.030;2022-09-20T02:34:02;5.40;99.90
16283;DHT22;8249;48.708;9.030;2022-09-20T02:36:40;5.40;99.90
16283;DHT22;8249;48.708;9.030;2022-09-20T02:39:15;5.40;99.90
16283;DHT22;8249;48.708;9.030;2022-09-20T02:41:51;5.40;99.90
16283;DHT22;8249;48.708;9.030;2022-09-20T02:44:32;5.40;99.90
16283;DHT22;8249;48.708;9.030;2022-09-20T02:47:08;5.50;99.90
16283;DHT22;8249;48.708;9.030;2022-09-20T02:49:52;5.50;99.90
16283;DHT22;8249;48.708;9.030;2022-09-20T02:52:29;5.50;99.90
16283;DHT22;8249;48.708;9.030;2022-09-20T02:55:06;5.50;99.90
16283;DHT22;8249;48.708;9.030;2022-09-20T02:57:43;5.60;99.90
16283;DHT22;8249;48.708;9.030;2022-09-20T03:00:17;5.60;99.90
16283;DHT22;8249;48.708;9.030;2022-09-20T03:02:53;5.60;99.90
16283;DHT22;8249;48.708;9.030;2022-09-20T03:05:28;5.50;99.90
16283;DHT22;8249;48.708;9.030;2022-09-20T03:08:09;5.70;99.90
16283;DHT22;8249;48.708;9.030;2022-09-20T03:10:42;5.70;99.90
16283;DHT22;8249;48.708;9.030;2022-09-20T03:13:17;5.80;99.90
16283;DHT22;8249;48.708;9.030;2022-09-20T03:15:55;5.90;99.90
16283;DHT22;8249;48.708;9.030;2022-09-20T03:18:33;6.00;99.90
16283;DHT22;8249;48.708;9.030;2022-09-20T03:21:11;6.00;99.90
16283;DHT22;8249;48.708;9.030;2022-09-20T03:23:50;6.00;99.90
16283;DHT22;8249;48.708;9.030;2022-09-20T03:26:34;6.10;99.90
16283;DHT22;8249;48.708;9.030;2022-09-20T03:29:12;6.00;99.90
16283;DHT22;8249;48.708;9.030;2022-09-20T03:31:49;6.00;99.90
16283;DHT22;8249;48.708;9.030;2022-09-20T03:34:35;6.00;99.90
16283;DHT22;8249;48.708;9.030;2022-09-20T03:37:20;6.00;99.90
16283;DHT22;8249;48.708;9.030;2022-09-20T03:42:45;6.10;99.90
16283;DHT22;8249;48.708;9.030;2022-09-20T03:45:28;6.00;99.90
16283;DHT22;8249;48.708;9.030;2022-09-20T03:48:20;6.00;99.90
16283;DHT22;8249;48.708;9.030;2022-09-20T03:50:57;6.10;99.90
16283;DHT22;8249;48.708;9.030;2022-09-20T03:53:47;6.10;99.90
16283;DHT22;8249;48.708;9.030;2022-09-20T03:56:35;6.20;99.90
16283;DHT22;8249;48.708;9.030;2022-09-20T03:59:25;6.20;99.90
16283;DHT22;8249;48.708;9.030;2022-09-20T04:02:08;6.30;99.90
16283;DHT22;8249;48.708;9.030;2022-09-20T04:04:45;6.30;99.90
16283;DHT22;8249;48.708;9.030;2022-09-20T04:07:18;6.40;99.90
16283;DHT22;8249;48.708;9.030;2022-09-20T04:12:58;6.50;99.90
16283;DHT22;8249;48.708;9.030;2022-09-20T04:15:36;6.50;99.90
16283;DHT22;8249;48.708;9.030;2022-09-20T04:18:14;6.50;99.90
16283;DHT22;8249;48.708;9.030;2022-09-20T04:20:47;6.60;99.90
16283;DHT22;8249;48.708;9.030;2022-09-20T04:23:28;6.60;99.90
16283;DHT22;8249;48.708;9.030;2022-09-20T04:26:00;6.60;99.90
16283;DHT22;8249;48.708;9.030;2022-09-20T04:28:32;6.70;99.90
16283;DHT22;8249;48.708;9.030;2022-09-20T04:31:04;6.80;99.90
16283;DHT22;8249;48.708;9.030;2022-09-20T04:33:41;6.90;99.90
16283;DHT22;8249;48.708;9.030;2022-09-20T04:36:14;6.90;99.90
16283;DHT22;8249;48.708;9.030;2022-09-20T04:39:02;7.00;99.90
16283;DHT22;8249;48.708;9.030;2022-09-20T04:45:05;7.20;99.90
16283;DHT22;8249;48.708;9.030;2022-09-20T04:48:00;7.30;99.90
16283;DHT22;8249;48.708;9.030;2022-09-20T04:54:04;7.40;99.90
16283;DHT22;8249;48.708;9.030;2022-09-20T04:56:48;7.40;99.90
16283;DHT22;8249;48.708;9.030;2022-09-20T04:59:26;7.40;99.90
16283;DHT22;8249;48.708;9.030;2022-09-20T05:02:27;7.50;99.90
16283;DHT22;8249;48.708;9.030;2022-09-20T05:05:31;7.60;99.90
16283;DHT22;8249;48.708;9.030;2022-09-20T05:08:37;7.50;99.90
16283;DHT22;8249;48.708;9.030;2022-09-20T05:11:23;7.60;99.90
16283;DHT22;8249;48.708;9.030;2022-09-20T05:14:19;7.50;99.90
16283;DHT22;8249;48.708;9.030;2022-09-20T05:17:01;7.50;99.90
16283;DHT22;8249;48.708;9.030;2022-09-20T05:19:38;7.50;99.90
16283;DHT22;8249;48.708;9.030;2022-09-20T05:22:23;7.50;99.90
16283;DHT22;8249;48.708;9.030;2022-09-20T05:25:11;7.50;99.90
16283;DHT22;8249;48.708;9.030;2022-09-20T05:27:48;7.50;99.90
16283;DHT22;8249;48.708;9.030;2022-09-20T05:30:25;7.60;99.90
16283;DHT22;8249;48.708;9.030;2022-09-20T05:33:04;7.50;99.90
16283;DHT22;8249;48.708;9.030;2022-09-20T05:35:40;7.50;99.90
16283;DHT22;8249;48.708;9.030;2022-09-20T05:38:15;7.50;99.90
16283;DHT22;8249;48.708;9.030;2022-09-20T05:40:59;7.60;99.90
16283;DHT22;8249;48.708;9.030;2022-09-20T05:43:31;7.60;99.90
16283;DHT22;8249;48.708;9.030;2022-09-20T05:46:13;7.60;99.90
16283;DHT22;8249;48.708;9.030;2022-09-20T05:48:51;7.60;99.90
16283;DHT22;8249;48.708;9.030;2022-09-20T05:51:29;7.70;99.90
16283;DHT22;8249;48.708;9.030;2022-09-20T05:54:14;7.80;99.90
16283;DHT22;8249;48.708;9.030;2022-09-20T05:56:47;7.90;99.90
16283;DHT22;8249;48.708;9.030;2022-09-20T05:59:24;8.00;99.90
16283;DHT22;8249;48.708;9.030;2022-09-20T06:02:09;8.20;99.90
16283;DHT22;8249;48.708;9.030;2022-09-20T06:04:46;8.30;99.90
16283;DHT22;8249;48.708;9.030;2022-09-20T06:07:22;8.50;99.90
16283;DHT22;8249;48.708;9.030;2022-09-20T06:10:09;8.60;99.90
16283;DHT22;8249;48.708;9.030;2022-09-20T06:12:48;8.60;99.90
16283;DHT22;8249;48.708;9.030;2022-09-20T06:15:21;8.60;99.90
16283;DHT22;8249;48.708;9.030;2022-09-20T06:17:58;8.60;99.90
16283;DHT22;8249;48.708;9.030;2022-09-20T06:20:30;8.60;99.90
16283;DHT22;8249;48.708;9.030;2022-09-20T06:22:59;8.60;99.90
16283;DHT22;8249;48.708;9.030;2022-09-20T06:25:33;8.70;99.90
16283;DHT22;8249;48.708;9.030;2022-09-20T06:28:12;8.80;99.90
16283;DHT22;8249;48.708;9.030;2022-09-20T06:30:42;8.90;99.90
16283;DHT22;8249;48.708;9.030;2022-09-20T06:33:15;9.00;99.90
16283;DHT22;8249;48.708;9.030;2022-09-20T06:35:45;9.20;99.90
16283;DHT22;8249;48.708;9.030;2022-09-20T06:38:40;9.30;99.90
16283;DHT22;8249;48.708;9.030;2022-09-20T06:41:30;9.40;99.90
16283;DHT22;8249;48.708;9.030;2022-09-20T06:44:03;9.40;99.90
16283;DHT22;8249;48.708;9.030;2022-09-20T06:46:33;9.50;99.90
16283;DHT22;8249;48.708;9.030;2022-09-20T06:49:02;9.60;99.90
16283;DHT22;8249;48.708;9.030;2022-09-20T06:51:34;9.70;99.90
16283;DHT22;8249;48.708;9.030;2022-09-20T06:54:01;9.70;99.90
16283;DHT22;8249;48.708;9.030;2022-09-20T06:56:31;9.70;99.90
16283;DHT22;8249;48.708;9.030;2022-09-20T06:58:59;9.80;99.90
16283;DHT22;8249;48.708;9.030;2022-09-20T07:01:26;9.80;99.90
16283;DHT22;8249;48.708;9.030;2022-09-20T07:03:53;9.90;99.90
16283;DHT22;8249;48.708;9.030;2022-09-20T07:06:22;9.90;99.90
16283;DHT22;8249;48.708;9.030;2022-09-20T07:08:48;9.90;99.90
16283;DHT22;8249;48.708;9.030;2022-09-20T07:11:16;10.00;99.90
16283;DHT22;8249;48.708;9.030;2022-09-20T07:13:44;10.00;99.90
16283;DHT22;8249;48.708;9.030;2022-09-20T07:16:12;10.10;99.90
16283;DHT22;8249;48.708;9.030;2022-09-20T07:18:39;10.10;99.90
16283;DHT22;8249;48.708;9.030;2022-09-20T07:21:08;10.30;99.90
16283;DHT22;8249;48.708;9.030;2022-09-20T07:23:38;10.40;99.90
16283;DHT22;8249;48.708;9.030;2022-09-20T07:26:05;10.60;99.90
16283;DHT22;8249;48.708;9.030;2022-09-20T07:28:33;10.90;99.90
16283;DHT22;8249;48.708;9.030;2022-09-20T07:31:00;11.20;99.90
16283;DHT22;8249;48.708;9.030;2022-09-20T07:33:27;11.40;99.90
16283;DHT22;8249;48.708;9.030;2022-09-20T07:35:54;11.50;99.90
16283;DHT22;8249;48.708;9.030;2022-09-20T07:38:22;11.60;99.90
16283;DHT22;8249;48.708;9.030;2022-09-20T07:40:55;11.80;99.90
16283;DHT22;8249;48.708;9.030;2022-09-20T07:43:22;12.10;99.90
16283;DHT22;8249;48.708;9.030;2022-09-20T07:45:49;12.30;99.90
16283;DHT22;8249;48.708;9.030;2022-09-20T07:48:20;12.60;99.90
16283;DHT22;8249;48.708;9.030;2022-09-20T07:50:50;12.90;99.90
16283;DHT22;8249;48.708;9.030;2022-09-20T07:53:17;13.20;99.90
16283;DHT22;8249;48.708;9.030;2022-09-20T07:55:56;13.40;99.90
16283;DHT22;8249;48.708;9.030;2022-09-20T07:58:24;13.30;99.90
16283;DHT22;8249;48.708;9.030;2022-09-20T08:00:52;13.20;99.90
16283;DHT22;8249;48.708;9.030;2022-09-20T08:03:19;13.40;99.90
16283;DHT22;8249;48.708;9.030;2022-09-20T08:05:46;13.60;99.90
16283;DHT22;8249;48.708;9.030;2022-09-20T08:08:13;13.50;99.90
16283;DHT22;8249;48.708;9.030;2022-09-20T08:10:41;13.60;99.90
16283;DHT22;8249;48.708;9.030;2022-09-20T08:13:09;13.60;99.90
16283;DHT22;8249;48.708;9.030;2022-09-20T08:15:37;13.40;99.90
16283;DHT22;8249;48.708;9.030;2022-09-20T08:18:05;13.30;99.90
16283;DHT22;8249;48.708;9.030;2022-09-20T08:20:34;13.10;99.90
16283;DHT22;8249;48.708;9.030;2022-09-20T08:23:01;13.00;99.90
16283;DHT22;8249;48.708;9.030;2022-09-20T08:25:28;13.50;99.90
16283;DHT22;8249;48.708;9.030;2022-09-20T08:27:55;14.30;99.90
16283;DHT22;8249;48.708;9.030;2022-09-20T08:30:23;14.90;99.90
16283;DHT22;8249;48.708;9.030;2022-09-20T08:32:50;15.60;99.90
16283;DHT22;8249;48.708;9.030;2022-09-20T08:35:20;16.30;99.90
16283;DHT22;8249;48.708;9.030;2022-09-20T08:37:50;17.00;99.90
16283;DHT22;8249;48.708;9.030;2022-09-20T08:40:20;17.30;99.90
16283;DHT22;8249;48.708;9.030;2022-09-20T08:42:49;17.70;99.90
16283;DHT22;8249;48.708;9.030;2022-09-20T08:45:20;17.70;99.90
16283;DHT22;8249;48.708;9.030;2022-09-20T08:47:50;17.60;99.90
16283;DHT22;8249;48.708;9.030;2022-09-20T08:50:19;17.60;99.90
16283;DHT22;8249;48.708;9.030;2022-09-20T08:52:48;17.90;99.90
16283;DHT22;8249;48.708;9.030;2022-09-20T08:55:20;18.30;99.90
16283;DHT22;8249;48.708;9.030;2022-09-20T08:57:49;18.80;99.90
16283;DHT22;8249;48.708;9.030;2022-09-20T09:00:18;18.90;99.90
16283;DHT22;8249;48.708;9.030;2022-09-20T09:02:47;19.10;99.90
16283;DHT22;8249;48.708;9.030;2022-09-20T09:05:30;19.20;99.90
16283;DHT22;8249;48.708;9.030;2022-09-20T09:07:57;19.30;99.90
16283;DHT22;8249;48.708;9.030;2022-09-20T09:10:27;19.60;99.90
16283;DHT22;8249;48.708;9.030;2022-09-20T09:12:56;20.00;99.90
16283;DHT22;8249;48.708;9.030;2022-09-20T09:15:27;20.50;99.90
16283;DHT22;8249;48.708;9.030;2022-09-20T09:17:58;21.00;99.90
16283;DHT22;8249;48.708;9.030;2022-09-20T09:20:25;21.50;99.90
16283;DHT22;8249;48.708;9.030;2022-09-20T09:23:00;21.60;99.90
16283;DHT22;8249;48.708;9.030;2022-09-20T09:25:29;21.00;99.90
16283;DHT22;8249;48.708;9.030;2022-09-20T09:28:00;20.20;99.90
16283;DHT22;8249;48.708;9.030;2022-09-20T09:30:30;19.20;99.90
16283;DHT22;8249;48.708;9.030;2022-09-20T09:33:23;18.20;99.90
16283;DHT22;8249;48.708;9.030;2022-09-20T09:35:57;17.20;99.90
16283;DHT22;8249;48.708;9.030;2022-09-20T09:38:27;16.50;99.90
16283;DHT22;8249;48.708;9.030;2022-09-20T09:40:55;15.90;99.90
16283;DHT22;8249;48.708;9.030;2022-09-20T09:43:24;15.40;99.90
16283;DHT22;8249;48.708;9.030;2022-09-20T09:45:54;15.20;99.90
16283;DHT22;8249;48.708;9.030;2022-09-20T09:48:26;15.10;99.90
16283;DHT22;8249;48.708;9.030;2022-09-20T09:51:08;15.70;99.90
16283;DHT22;8249;48.708;9.030;2022-09-20T09:53:35;17.30;99.90
16283;DHT22;8249;48.708;9.030;2022-09-20T09:56:36;18.70;99.90
16283;DHT22;8249;48.708;9.030;2022-09-20T09:59:27;18.90;99.90
16283;DHT22;8249;48.708;9.030;2022-09-20T10:02:01;18.00;99.90
16283;DHT22;8249;48.708;9.030;2022-09-20T10:04:45;17.70;99.90
16283;DHT22;8249;48.708;9.030;2022-09-20T10:07:17;17.60;99.90
16283;DHT22;8249;48.708;9.030;2022-09-20T10:09:57;17.80;99.90
16283;DHT22;8249;48.708;9.030;2022-09-20T10:12:36;18.80;99.90
16283;DHT22;8249;48.708;9.030;2022-09-20T10:15:16;19.70;99.90
16283;DHT22;8249;48.708;9.030;2022-09-20T10:17:54;20.00;99.90
16283;DHT22;8249;48.708;9.030;2022-09-20T10:20:34;19.10;99.90
16283;DHT22;8249;48.708;9.030;2022-09-20T10:23:13;18.50;99.90
16283;DHT22;8249;48.708;9.030;2022-09-20T10:25:46;17.70;99.90
16283;DHT22;8249;48.708;9.030;2022-09-20T10:28:27;17.00;99.90
16283;DHT22;8249;48.708;9.030;2022-09-20T10:31:05;16.50;99.90
16283;DHT22;8249;48.708;9.030;2022-09-20T10:33:42;16.00;99.90
16283;DHT22;8249;48.708;9.030;2022-09-20T10:36:22;15.60;99.90
16283;DHT22;8249;48.708;9.030;2022-09-20T10:38:56;15.50;99.90
16283;DHT22;8249;48.708;9.030;2022-09-20T10:41:38;15.50;99.90
16283;DHT22;8249;48.708;9.030;2022-09-20T10:44:52;16.60;99.90
16283;DHT22;8249;48.708;9.030;2022-09-20T10:47:28;17.70;99.90
16283;DHT22;8249;48.708;9.030;2022-09-20T10:50:03;17.90;99.90
16283;DHT22;8249;48.708;9.030;2022-09-20T10:52:48;17.80;99.90
16283;DHT22;8249;48.708;9.030;2022-09-20T10:55:25;17.50;99.90
16283;DHT22;8249;48.708;9.030;2022-09-20T11:00:59;16.50;99.90
16283;DHT22;8249;48.708;9.030;2022-09-20T11:03:39;16.10;99.90
16283;DHT22;8249;48.708;9.030;2022-09-20T11:06:14;15.60;99.90
16283;DHT22;8249;48.708;9.030;2022-09-20T11:08:46;15.20;99.90
16283;DHT22;8249;48.708;9.030;2022-09-20T11:11:19;15.10;99.90
16283;DHT22;8249;48.708;9.030;2022-09-20T11:13:55;15.10;99.90
16283;DHT22;8249;48.708;9.030;2022-09-20T11:16:28;15.00;99.90
16283;DHT22;8249;48.708;9.030;2022-09-20T11:19:04;15.00;99.90
16283;DHT22;8249;48.708;9.030;2022-09-20T11:21:38;15.40;99.90
16283;DHT22;8249;48.708;9.030;2022-09-20T11:24:16;15.80;99.90
16283;DHT22;8249;48.708;9.030;2022-09-20T11:26:49;16.30;99.90
16283;DHT22;8249;48.708;9.030;2022-09-20T11:29:22;17.70;99.90
16283;DHT22;8249;48.708;9.030;2022-09-20T11:31:54;19.40;99.90
16283;DHT22;8249;48.708;9.030;2022-09-20T11:34:26;20.00;99.90
16283;DHT22;8249;48.708;9.030;2022-09-20T11:36:55;19.80;99.90
16283;DHT22;8249;48.708;9.030;2022-09-20T11:39:29;19.20;99.90
16283;DHT22;8249;48.708;9.030;2022-09-20T11:42:02;18.70;99.90
16283;DHT22;8249;48.708;9.030;2022-09-20T11:44:30;18.50;99.90
16283;DHT22;8249;48.708;9.030;2022-09-20T11:46:59;18.70;99.90
16283;DHT22;8249;48.708;9.030;2022-09-20T11:49:29;18.70;99.90
16283;DHT22;8249;48.708;9.030;2022-09-20T11:52:29;18.30;99.90
16283;DHT22;8249;48.708;9.030;2022-09-20T11:55:16;18.10;99.90
16283;DHT22;8249;48.708;9.030;2022-09-20T11:57:44;18.20;99.90
16283;DHT22;8249;48.708;9.030;2022-09-20T12:00:12;18.30;99.90
16283;DHT22;8249;48.708;9.030;2022-09-20T12:02:45;18.40;99.90
16283;DHT22;8249;48.708;9.030;2022-09-20T12:05:26;18.10;99.90
16283;DHT22;8249;48.708;9.030;2022-09-20T12:07:55;18.50;99.90
16283;DHT22;8249;48.708;9.030;2022-09-20T12:10:26;20.10;99.90
16283;DHT22;8249;48.708;9.030;2022-09-20T12:12:56;21.80;99.40
16283;DHT22;8249;48.708;9.030;2022-09-20T12:15:25;23.60;97.10
16283;DHT22;8249;48.708;9.030;2022-09-20T12:21:04;22.00;93.60
16283;DHT22;8249;48.708;9.030;2022-09-20T12:24:01;20.50;94.60
16283;DHT22;8249;48.708;9.030;2022-09-20T12:26:41;19.60;96.40
16283;DHT22;8249;48.708;9.030;2022-09-20T12:32:52;19.40;95.50
16283;DHT22;8249;48.708;9.030;2022-09-20T12:41:46;18.70;95.00
16283;DHT22;8249;48.708;9.030;2022-09-20T12:44:26;19.20;95.60
16283;DHT22;8249;48.708;9.030;2022-09-20T12:46:56;20.20;93.70
16283;DHT22;8249;48.708;9.030;2022-09-20T12:49:34;21.80;91.80
16283;DHT22;8249;48.708;9.030;2022-09-20T12:52:32;23.50;91.20
16283;DHT22;8249;48.708;9.030;2022-09-20T12:55:49;24.70;87.80
16283;DHT22;8249;48.708;9.030;2022-09-20T12:58:32;26.10;82.00
16283;DHT22;8249;48.708;9.030;2022-09-20T13:01:27;26.80;80.80
16283;DHT22;8249;48.708;9.030;2022-09-20T13:10:28;27.30;72.60
16283;DHT22;8249;48.708;9.030;2022-09-20T13:13:03;25.80;74.20
16283;DHT22;8249;48.708;9.030;2022-09-20T13:15:34;24.50;74.80
16283;DHT22;8249;48.708;9.030;2022-09-20T13:18:01;24.10;75.50
16283;DHT22;8249;48.708;9.030;2022-09-20T13:20:31;23.50;78.20
16283;DHT22;8249;48.708;9.030;2022-09-20T13:23:01;23.10;79.70
16283;DHT22;8249;48.708;9.030;2022-09-20T13:25:29;22.20;78.80
16283;DHT22;8249;48.708;9.030;2022-09-20T13:28:05;21.90;81.30
16283;DHT22;8249;48.708;9.030;2022-09-20T13:30:35;21.40;80.60
16283;DHT22;8249;48.708;9.030;2022-09-20T13:33:20;20.80;81.60
16283;DHT22;8249;48.708;9.030;2022-09-20T13:35:49;20.10;82.50
16283;DHT22;8249;48.708;9.030;2022-09-20T13:38:17;19.50;85.50
16283;DHT22;8249;48.708;9.030;2022-09-20T13:40:50;18.80;85.40
16283;DHT22;8249;48.708;9.030;2022-09-20T13:43:26;18.20;87.10
16283;DHT22;8249;48.708;9.030;2022-09-20T13:45:58;17.90;86.80
16283;DHT22;8249;48.708;9.030;2022-09-20T13:48:26;17.40;87.20
16283;DHT22;8249;48.708;9.030;2022-09-20T13:50:54;17.10;88.90
16283;DHT22;8249;48.708;9.030;2022-09-20T13:53:23;17.00;90.20
16283;DHT22;8249;48.708;9.030;2022-09-20T13:55:50;16.80;90.10
16283;DHT22;8249;48.708;9.030;2022-09-20T13:58:20;16.50;91.20
16283;DHT22;8249;48.708;9.030;2022-09-20T14:00:51;16.40;91.40
16283;DHT22;8249;48.708;9.030;2022-09-20T14:03:21;16.10;91.80
16283;DHT22;8249;48.708;9.030;2022-09-20T14:05:50;16.00;93.20
16283;DHT22;8249;48.708;9.030;2022-09-20T14:08:24;15.80;93.20
16283;DHT22;8249;48.708;9.030;2022-09-20T14:11:04;15.60;94.30
16283;DHT22;8249;48.708;9.030;2022-09-20T14:13:36;15.40;95.20
16283;DHT22;8249;48.708;9.030;2022-09-20T14:16:05;15.30;96.20
16283;DHT22;8249;48.708;9.030;2022-09-20T14:18:34;15.20;96.30
16283;DHT22;8249;48.708;9.030;2022-09-20T14:21:04;15.10;96.10
16283;DHT22;8249;48.708;9.030;2022-09-20T14:23:31;15.00;96.80
16283;DHT22;8249;48.708;9.030;2022-09-20T14:26:05;14.90;97.30
16283;DHT22;8249;48.708;9.030;2022-09-20T14:28:34;14.70;97.40
16283;DHT22;8249;48.708;9.030;2022-09-20T14:31:06;14.60;98.10
16283;DHT22;8249;48.708;9.030;2022-09-20T14:33:41;14.60;98.90
16283;DHT22;8249;48.708;9.030;2022-09-20T14:36:13;14.50;98.70
16283;DHT22;8249;48.708;9.030;2022-09-20T14:38:42;14.40;99.50
16283;DHT22;8249;48.708;9.030;2022-09-20T14:41:10;14.30;99.90
16283;DHT22;8249;48.708;9.030;2022-09-20T14:43:38;14.30;99.50
16283;DHT22;8249;48.708;9.030;2022-09-20T14:46:11;14.30;99.90
16283;DHT22;8249;48.708;9.030;2022-09-20T14:48:42;14.20;99.80
16283;DHT22;8249;48.708;9.030;2022-09-20T14:51:22;14.20;99.60
16283;DHT22;8249;48.708;9.030;2022-09-20T14:53:52;14.20;99.90
16283;DHT22;8249;48.708;9.030;2022-09-20T14:56:31;14.30;99.90
16283;DHT22;8249;48.708;9.030;2022-09-20T14:59:03;14.40;99.90
16283;DHT22;8249;48.708;9.030;2022-09-20T15:01:32;14.90;99.70
16283;DHT22;8249;48.708;9.030;2022-09-20T15:04:06;15.00;98.40
16283;DHT22;8249;48.708;9.030;2022-09-20T15:06:35;15.10;98.40
16283;DHT22;8249;48.708;9.030;2022-09-20T15:09:04;15.40;97.30
16283;DHT22;8249;48.708;9.030;2022-09-20T15:11:31;15.50;97.40
16283;DHT22;8249;48.708;9.030;2022-09-20T15:13:58;17.10;96.90
16283;DHT22;8249;48.708;9.030;2022-09-20T15:16:26;19.50;94.40
16283;DHT22;8249;48.708;9.030;2022-09-20T15:18:54;21.30;92.30
16283;DHT22;8249;48.708;9.030;2022-09-20T15:21:22;22.50;90.60
16283;DHT22;8249;48.708;9.030;2022-09-20T15:23:49;23.00;88.90
16283;DHT22;8249;48.708;9.030;2022-09-20T15:26:19;22.90;88.30
16283;DHT22;8249;48.708;9.030;2022-09-20T15:28:47;21.90;88.70
16283;DHT22;8249;48.708;9.030;2022-09-20T15:31:14;21.90;88.90
16283;DHT22;8249;48.708;9.030;2022-09-20T15:33:43;21.30;88.20
16283;DHT22;8249;48.708;9.030;2022-09-20T15:36:10;21.20;87.60
16283;DHT22;8249;48.708;9.030;2022-09-20T15:38:38;21.80;87.40
16283;DHT22;8249;48.708;9.030;2022-09-20T15:41:06;22.50;86.70
16283;DHT22;8249;48.708;9.030;2022-09-20T15:43:33;23.00;84.90
16283;DHT22;8249;48.708;9.030;2022-09-20T15:46:15;22.20;85.30
16283;DHT22;8249;48.708;9.030;2022-09-20T15:48:43;20.90;87.50
16283;DHT22;8249;48.708;9.030;2022-09-20T15:51:11;19.60;90.20
16283;DHT22;8249;48.708;9.030;2022-09-20T15:53:41;18.70;90.90
16283;DHT22;8249;48.708;9.030;2022-09-20T15:56:14;18.50;92.30
16283;DHT22;8249;48.708;9.030;2022-09-20T15:58:46;19.00;92.20
16283;DHT22;8249;48.708;9.030;2022-09-20T16:01:15;19.70;90.80
16283;DHT22;8249;48.708;9.030;2022-09-20T16:03:43;20.30;90.80
16283;DHT22;8249;48.708;9.030;2022-09-20T16:06:11;20.90;90.20
16283;DHT22;8249;48.708;9.030;2022-09-20T16:08:41;21.60;89.00
16283;DHT22;8249;48.708;9.030;2022-09-20T16:11:11;21.90;87.20
16283;DHT22;8249;48.708;9.030;2022-09-20T16:13:39;21.30;86.40
16283;DHT22;8249;48.708;9.030;2022-09-20T16:16:09;19.90;88.60
16283;DHT22;8249;48.708;9.030;2022-09-20T16:18:37;18.70;90.90
16283;DHT22;8249;48.708;9.030;2022-09-20T16:21:23;17.70;92.80
16283;DHT22;8249;48.708;9.030;2022-09-20T16:23:53;16.80;93.30
16283;DHT22;8249;48.708;9.030;2022-09-20T16:26:21;16.40;93.90
16283;DHT22;8249;48.708;9.030;2022-09-20T16:28:49;16.10;94.60
16283;DHT22;8249;48.708;9.030;2022-09-20T16:31:34;15.80;95.80
16283;DHT22;8249;48.708;9.030;2022-09-20T16:34:08;15.60;95.80
16283;DHT22;8249;48.708;9.030;2022-09-20T16:36:37;15.50;96.50
16283;DHT22;8249;48.708;9.030;2022-09-20T16:39:07;15.40;96.20
16283;DHT22;8249;48.708;9.030;2022-09-20T16:41:34;15.20;97.30
16283;DHT22;8249;48.708;9.030;2022-09-20T16:44:02;14.90;97.50
16283;DHT22;8249;48.708;9.030;2022-09-20T16:46:29;14.60;97.90
16283;DHT22;8249;48.708;9.030;2022-09-20T16:48:57;14.40;99.10
16283;DHT22;8249;48.708;9.030;2022-09-20T16:51:29;14.20;99.20
16283;DHT22;8249;48.708;9.030;2022-09-20T16:54:00;14.00;99.20
16283;DHT22;8249;48.708;9.030;2022-09-20T16:56:30;13.70;99.90
16283;DHT22;8249;48.708;9.030;2022-09-20T16:59:00;13.50;99.90
16283;DHT22;8249;48.708;9.030;2022-09-20T17:01:30;13.30;99.90
16283;DHT22;8249;48.708;9.030;2022-09-20T17:03:59;13.10;99.90
16283;DHT22;8249;48.708;9.030;2022-09-20T17:06:27;12.90;99.90
16283;DHT22;8249;48.708;9.030;2022-09-20T17:08:55;12.80;99.90
16283;DHT22;8249;48.708;9.030;2022-09-20T17:11:24;12.60;99.90
16283;DHT22;8249;48.708;9.030;2022-09-20T17:13:54;12.40;99.90
16283;DHT22;8249;48.708;9.030;2022-09-20T17:16:24;12.30;99.90
16283;DHT22;8249;48.708;9.030;2022-09-20T17:18:52;12.20;99.90
16283;DHT22;8249;48.708;9.030;2022-09-20T17:21:20;12.00;99.90